createdAt,value
2023-03-24T00:01:29.986Z,3.13
2023-03-24T00:03:59.383Z,2.93
2023-03-24T00:06:27.320Z,2.80
2023-03-24T00:08:55.403Z,3.23
2023-03-24T00:11:23.307Z,3.43
2023-03-24T00:13:51.337Z,3.37
2023-03-24T00:16:21.923Z,2.80
2023-03-24T00:18:54.019Z,2.97
2023-03-24T00:21:26.982Z,2.53
2023-03-24T00:23:58.572Z,3.03
2023-03-24T00:26:28.497Z,3.67
2023-03-24T00:28:57.401Z,3.27
2023-03-24T00:31:26.718Z,3.50
2023-03-24T00:33:55.048Z,2.80
2023-03-24T00:36:29.306Z,3.07
2023-03-24T00:38:58.246Z,2.80
2023-03-24T00:41:28.172Z,2.53
2023-03-24T00:44:00.630Z,2.40
2023-03-24T00:46:28.982Z,2.30
2023-03-24T00:49:07.500Z,2.40
2023-03-24T00:51:41.442Z,2.20
2023-03-24T00:54:14.164Z,3.17
2023-03-24T00:56:43.877Z,2.67
2023-03-24T00:59:14.049Z,3.00
2023-03-24T01:01:43.660Z,2.97
2023-03-24T01:04:11.767Z,2.50
2023-03-24T01:06:41.243Z,2.70
2023-03-24T01:09:10.802Z,3.40
2023-03-24T01:11:42.164Z,3.60
2023-03-24T01:14:12.702Z,2.97
2023-03-24T01:16:42.838Z,3.80
2023-03-24T01:19:11.236Z,3.90
2023-03-24T01:21:42.365Z,3.80
2023-03-24T01:24:10.746Z,3.83
2023-03-24T01:26:38.902Z,3.67
2023-03-24T01:29:07.541Z,3.57
2023-03-24T01:31:36.192Z,3.63
2023-03-24T01:34:05.945Z,3.27
2023-03-24T01:36:34.099Z,3.37
2023-03-24T01:39:02.199Z,3.50
2023-03-24T01:41:41.924Z,4.10
2023-03-24T01:44:37.754Z,3.77
2023-03-24T01:47:09.093Z,4.27
2023-03-24T01:49:54.276Z,3.70
2023-03-24T01:52:33.309Z,3.70
2023-03-24T01:55:18.767Z,4.70
2023-03-24T01:57:57.830Z,4.00
2023-03-24T02:00:31.344Z,4.47
2023-03-24T02:03:35.002Z,3.77
2023-03-24T02:06:03.644Z,3.53
2023-03-24T02:08:59.489Z,3.20
2023-03-24T02:11:35.593Z,3.87
2023-03-24T02:14:09.073Z,3.53
2023-03-24T02:17:59.362Z,3.47
2023-03-24T02:21:27.061Z,3.63
2023-03-24T02:24:55.596Z,3.40
2023-03-24T02:28:02.874Z,4.17
2023-03-24T02:31:07.691Z,3.13
2023-03-24T02:34:32.418Z,4.30
2023-03-24T02:37:45.403Z,3.87
2023-03-24T02:40:56.700Z,3.60
2023-03-24T02:43:50.728Z,4.00
2023-03-24T02:46:46.375Z,3.90
2023-03-24T02:50:32.854Z,4.10
2023-03-24T02:53:51.525Z,4.17
2023-03-24T02:57:17.888Z,3.63
2023-03-24T03:00:48.489Z,4.20
2023-03-24T03:03:53.268Z,4.30
2023-03-24T03:06:36.455Z,4.10
2023-03-24T03:09:15.376Z,5.93
2023-03-24T03:11:53.300Z,3.93
2023-03-24T03:14:36.906Z,4.23
2023-03-24T03:17:38.983Z,3.77
2023-03-24T03:20:25.058Z,3.83
2023-03-24T03:23:14.421Z,3.40
2023-03-24T03:25:53.682Z,3.67
2023-03-24T03:28:30.150Z,3.20
2023-03-24T03:31:08.376Z,3.67
2023-03-24T03:34:23.043Z,3.17
2023-03-24T03:37:21.622Z,3.50
2023-03-24T03:40:10.015Z,3.20
2023-03-24T03:42:41.746Z,3.33
2023-03-24T03:45:12.615Z,2.93
2023-03-24T03:47:41.861Z,3.90
2023-03-24T03:50:11.140Z,3.73
2023-03-24T03:52:41.818Z,3.07
2023-03-24T03:55:12.293Z,3.83
2023-03-24T03:57:43.725Z,3.83
2023-03-24T04:00:25.602Z,3.50
2023-03-24T04:04:09.071Z,3.10
2023-03-24T04:07:11.522Z,3.33
2023-03-24T04:10:38.666Z,3.77
2023-03-24T04:13:48.854Z,3.43
2023-03-24T04:17:15.478Z,3.37
2023-03-24T04:20:13.062Z,3.30
2023-03-24T04:23:18.986Z,2.93
2023-03-24T04:26:29.254Z,3.53
2023-03-24T04:29:54.433Z,2.67
2023-03-24T04:32:59.575Z,2.60
2023-03-24T04:35:53.324Z,2.80
2023-03-24T04:38:30.391Z,2.57
2023-03-24T04:41:18.114Z,2.80
2023-03-24T04:43:58.052Z,2.50
2023-03-24T04:46:26.679Z,2.57
2023-03-24T04:48:59.756Z,2.00
2023-03-24T04:51:33.218Z,2.53
2023-03-24T04:54:05.686Z,1.93
2023-03-24T04:56:51.050Z,1.93
2023-03-24T04:59:34.340Z,2.50
2023-03-24T05:02:05.353Z,1.97
2023-03-24T05:04:58.383Z,1.67
2023-03-24T05:07:34.522Z,1.90
2023-03-24T05:10:07.851Z,2.60
2023-03-24T05:12:41.808Z,2.10
2023-03-24T05:15:32.993Z,2.17
2023-03-24T05:18:21.101Z,1.70
2023-03-24T05:20:49.625Z,2.13
2023-03-24T05:23:21.181Z,1.80
2023-03-24T05:25:51.464Z,1.97
2023-03-24T05:28:22.539Z,2.30
2023-03-24T05:30:50.790Z,1.80
2023-03-24T05:33:33.441Z,2.33
2023-03-24T05:36:02.119Z,2.03
2023-03-24T05:38:30.801Z,1.93
2023-03-24T05:41:03.109Z,1.87
2023-03-24T05:43:37.341Z,2.30
2023-03-24T05:46:11.989Z,3.07
2023-03-24T05:48:39.860Z,3.50
2023-03-24T05:51:12.044Z,2.83
2023-03-24T05:53:39.897Z,3.40
2023-03-24T05:56:24.331Z,2.83
2023-03-24T05:59:12.091Z,2.67
2023-03-24T06:02:00.068Z,3.47
2023-03-24T06:04:39.299Z,4.03
2023-03-24T06:07:14.791Z,3.50
2023-03-24T06:09:47.214Z,3.90
2023-03-24T06:12:16.773Z,3.50
2023-03-24T06:14:56.335Z,3.20
2023-03-24T06:17:25.992Z,3.47
2023-03-24T06:20:04.901Z,3.17
2023-03-24T06:22:49.983Z,3.37
2023-03-24T06:25:28.982Z,3.43
2023-03-24T06:28:12.473Z,3.13
2023-03-24T06:30:46.846Z,3.93
2023-03-24T06:33:22.302Z,2.30
2023-03-24T06:35:53.839Z,2.90
2023-03-24T06:38:22.444Z,3.10
2023-03-24T06:40:50.539Z,2.60
2023-03-24T06:43:18.593Z,2.47
2023-03-24T06:45:46.969Z,2.90
2023-03-24T06:48:19.810Z,2.20
2023-03-24T06:50:48.494Z,2.43
2023-03-24T06:53:17.279Z,2.60
2023-03-24T06:55:45.953Z,2.60
2023-03-24T06:58:18.022Z,2.73
2023-03-24T07:01:02.274Z,2.40
2023-03-24T07:03:42.086Z,2.30
2023-03-24T07:06:30.122Z,2.27
2023-03-24T07:09:05.147Z,2.00
2023-03-24T07:11:33.152Z,2.80
2023-03-24T07:14:03.572Z,2.27
2023-03-24T07:16:33.115Z,2.10
2023-03-24T07:19:19.477Z,2.17
2023-03-24T07:21:52.517Z,1.97
2023-03-24T07:24:31.735Z,2.43
2023-03-24T07:27:12.172Z,2.40
2023-03-24T07:29:39.962Z,2.20
2023-03-24T07:32:18.752Z,2.50
2023-03-24T07:34:47.194Z,2.53
2023-03-24T07:37:15.016Z,2.50
2023-03-24T07:39:43.519Z,1.90
2023-03-24T07:42:13.247Z,2.10
2023-03-24T07:45:01.318Z,2.00
2023-03-24T07:47:29.337Z,1.90
2023-03-24T07:49:58.340Z,1.73
2023-03-24T07:52:26.103Z,1.73
2023-03-24T07:54:57.598Z,2.30
2023-03-24T07:58:03.891Z,2.30
2023-03-24T08:00:33.071Z,2.33
2023-03-24T08:03:28.541Z,1.73
2023-03-24T08:06:25.796Z,2.00
2023-03-24T08:08:57.500Z,2.17
2023-03-24T08:11:25.604Z,1.97
2023-03-24T08:13:53.181Z,1.50
2023-03-24T08:16:21.558Z,1.63
2023-03-24T08:18:50.786Z,2.17
2023-03-24T08:21:18.781Z,2.03
2023-03-24T08:23:46.580Z,1.50
2023-03-24T08:26:15.300Z,1.93
2023-03-24T08:28:43.554Z,1.90
2023-03-24T08:31:12.704Z,2.67
2023-03-24T08:33:40.602Z,2.20
2023-03-24T08:36:08.834Z,2.73
2023-03-24T08:38:39.149Z,1.87
2023-03-24T08:41:08.717Z,2.27
2023-03-24T08:43:37.966Z,3.00
2023-03-24T08:46:11.750Z,2.40
2023-03-24T08:48:41.332Z,1.63
2023-03-24T08:51:17.995Z,2.50
2023-03-24T08:53:45.974Z,2.37
2023-03-24T08:56:14.579Z,2.60
2023-03-24T08:58:42.382Z,1.60
2023-03-24T09:01:10.612Z,1.83
2023-03-24T09:03:39.714Z,2.43
2023-03-24T09:06:09.043Z,2.60
2023-03-24T09:08:37.734Z,1.67
2023-03-24T09:11:15.364Z,2.97
2023-03-24T09:13:47.001Z,1.80
2023-03-24T09:16:18.369Z,2.60
2023-03-24T09:18:47.904Z,2.30
2023-03-24T09:21:17.377Z,2.80
2023-03-24T09:23:45.594Z,3.13
2023-03-24T09:26:13.636Z,2.40
2023-03-24T09:28:41.787Z,3.17
2023-03-24T09:31:11.429Z,3.00
2023-03-24T09:33:41.869Z,2.50
2023-03-24T09:36:12.002Z,2.43
2023-03-24T09:38:50.161Z,2.73
2023-03-24T09:41:34.455Z,2.03
2023-03-24T09:44:51.057Z,2.73
2023-03-24T09:47:45.438Z,3.50
2023-03-24T09:50:55.978Z,3.00
2023-03-24T09:53:58.857Z,2.77
2023-03-24T09:56:39.842Z,3.53
2023-03-24T09:59:36.670Z,2.80
2023-03-24T10:02:22.356Z,3.53
2023-03-24T10:04:51.278Z,3.50
2023-03-24T10:07:44.050Z,2.57
2023-03-24T10:11:09.778Z,2.20
2023-03-24T10:14:04.507Z,1.90
2023-03-24T10:17:34.985Z,2.20
2023-03-24T10:20:54.077Z,1.90
2023-03-24T10:24:09.168Z,1.40
2023-03-24T10:26:51.766Z,2.43
2023-03-24T10:29:32.464Z,2.33
2023-03-24T10:32:35.541Z,1.97
2023-03-24T10:35:09.784Z,2.53
2023-03-24T10:37:38.597Z,2.27
2023-03-24T10:40:22.504Z,2.40
2023-03-24T10:43:07.173Z,2.10
2023-03-24T10:45:49.986Z,3.00
2023-03-24T10:48:53.066Z,2.03
2023-03-24T10:51:36.897Z,2.03
2023-03-24T10:54:32.267Z,3.50
2023-03-24T10:57:00.806Z,2.00
2023-03-24T10:59:48.761Z,1.60
2023-03-24T11:02:33.793Z,1.80
2023-03-24T11:05:26.573Z,1.30
2023-03-24T11:08:34.020Z,1.73
2023-03-24T11:11:24.980Z,1.87
2023-03-24T11:14:02.549Z,1.80
2023-03-24T11:16:43.108Z,2.03
2023-03-24T11:19:27.255Z,1.80
2023-03-24T11:22:06.889Z,2.30
2023-03-24T11:24:39.115Z,1.90
2023-03-24T11:27:07.776Z,1.37
2023-03-24T11:29:41.876Z,1.73
2023-03-24T11:32:30.180Z,1.73
2023-03-24T11:35:17.804Z,1.70
2023-03-24T11:37:48.245Z,3.77
2023-03-24T11:40:26.983Z,2.70
2023-03-24T11:43:08.417Z,1.80
2023-03-24T11:45:46.319Z,1.80
2023-03-24T11:48:59.066Z,1.97
2023-03-24T11:51:35.716Z,1.73
2023-03-24T11:54:18.963Z,1.83
2023-03-24T11:57:04.880Z,1.87
2023-03-24T12:00:15.431Z,1.37
2023-03-24T12:04:06.288Z,2.63
2023-03-24T12:07:59.885Z,1.97
2023-03-24T12:11:37.111Z,2.23
2023-03-24T12:14:09.349Z,2.10
2023-03-24T12:17:26.232Z,2.00
2023-03-24T12:20:51.430Z,1.80
2023-03-24T12:23:57.692Z,2.30
2023-03-24T12:26:34.724Z,1.60
2023-03-24T12:29:43.322Z,2.13
2023-03-24T12:32:53.035Z,2.33
2023-03-24T12:35:41.386Z,2.33
2023-03-24T12:39:00.168Z,2.10
2023-03-24T12:42:16.065Z,2.40
2023-03-24T12:45:40.609Z,2.00
2023-03-24T12:49:07.302Z,1.50
2023-03-24T12:52:30.587Z,2.10
2023-03-24T12:55:33.118Z,2.10
2023-03-24T12:58:50.177Z,2.17
2023-03-24T13:02:02.809Z,2.23
2023-03-24T13:04:42.441Z,2.30
2023-03-24T13:07:18.039Z,2.23
2023-03-24T13:10:20.546Z,2.03
2023-03-24T13:13:18.472Z,2.37
2023-03-24T13:16:17.070Z,1.90
2023-03-24T13:19:00.172Z,1.83
2023-03-24T13:21:29.938Z,1.80
2023-03-24T13:24:15.404Z,2.20
2023-03-24T13:27:28.177Z,2.40
2023-03-24T13:30:43.216Z,2.20
2023-03-24T13:33:33.797Z,2.47
2023-03-24T13:36:31.720Z,2.53
2023-03-24T13:39:14.702Z,2.17
2023-03-24T13:41:57.698Z,1.80
2023-03-24T13:44:46.601Z,1.97
2023-03-24T13:47:20.436Z,2.03
2023-03-24T13:50:05.451Z,1.47
2023-03-24T13:52:48.706Z,1.57
2023-03-24T13:55:31.233Z,3.20
2023-03-24T13:58:15.914Z,1.50
2023-03-24T14:01:12.257Z,1.60
2023-03-24T14:03:47.776Z,1.90
2023-03-24T14:06:59.235Z,2.47
2023-03-24T14:09:35.630Z,2.03
2023-03-24T14:12:08.517Z,1.50
2023-03-24T14:15:20.245Z,1.90
2023-03-24T14:18:13.455Z,1.63
2023-03-24T14:21:04.359Z,1.23
2023-03-24T14:23:52.571Z,1.20
2023-03-24T14:26:26.401Z,1.60
2023-03-24T14:28:57.603Z,1.70
2023-03-24T14:31:36.667Z,2.00
2023-03-24T14:34:21.318Z,2.03
2023-03-24T14:37:08.238Z,2.53
2023-03-24T14:39:47.820Z,2.70
2023-03-24T14:42:34.381Z,2.20
2023-03-24T14:45:40.589Z,2.50
2023-03-24T14:48:58.743Z,2.00
2023-03-24T14:52:01.718Z,1.90
2023-03-24T14:54:56.662Z,2.00
2023-03-24T14:57:42.199Z,1.73
2023-03-24T15:00:35.078Z,2.10
2023-03-24T15:03:32.232Z,2.10
2023-03-24T15:06:23.890Z,2.10
2023-03-24T15:09:00.147Z,2.37
2023-03-24T15:11:39.534Z,2.40
2023-03-24T15:14:25.239Z,2.77
2023-03-24T15:17:05.394Z,2.10
2023-03-24T15:19:34.092Z,2.00
2023-03-24T15:22:14.362Z,2.50
2023-03-24T15:24:48.195Z,2.10
2023-03-24T15:27:29.314Z,1.97
2023-03-24T15:30:00.553Z,2.27
2023-03-24T15:32:33.996Z,1.77
2023-03-24T15:35:19.020Z,2.10
2023-03-24T15:38:01.914Z,2.63
2023-03-24T15:40:43.443Z,2.40
2023-03-24T15:43:24.546Z,1.70
2023-03-24T15:46:12.063Z,1.70
2023-03-24T15:48:48.270Z,2.50
2023-03-24T15:51:20.654Z,2.63
2023-03-24T15:53:59.514Z,2.30
2023-03-24T15:56:32.178Z,2.97
2023-03-24T15:59:15.913Z,2.80
2023-03-24T16:01:45.549Z,2.33
2023-03-24T16:04:23.664Z,2.13
2023-03-24T16:06:54.831Z,2.20
2023-03-24T16:09:27.864Z,2.80
2023-03-24T16:11:56.217Z,2.30
2023-03-24T16:14:32.718Z,3.50
2023-03-24T16:17:03.954Z,3.00
2023-03-24T16:19:32.980Z,3.10
2023-03-24T16:22:01.164Z,1.90
2023-03-24T16:24:28.883Z,2.47
2023-03-24T16:26:56.651Z,2.60
2023-03-24T16:29:25.191Z,2.73
2023-03-24T16:31:57.445Z,2.50
2023-03-24T16:34:25.376Z,2.30
2023-03-24T16:36:56.283Z,2.20
2023-03-24T16:39:29.324Z,2.07
2023-03-24T16:41:57.690Z,1.97
2023-03-24T16:44:26.796Z,2.30
2023-03-24T16:46:56.329Z,1.80
2023-03-24T16:49:25.075Z,2.33
2023-03-24T16:51:53.876Z,2.20
2023-03-24T16:54:21.903Z,1.77
2023-03-24T16:56:49.829Z,2.53
2023-03-24T16:59:17.739Z,2.10
2023-03-24T17:01:47.593Z,2.50
2023-03-24T17:04:22.606Z,1.80
2023-03-24T17:06:54.537Z,1.70
2023-03-24T17:09:23.378Z,2.00
2023-03-24T17:11:57.675Z,1.87
2023-03-24T17:14:25.864Z,1.77
2023-03-24T17:16:53.854Z,1.33
2023-03-24T17:19:24.958Z,2.20
2023-03-24T17:22:07.069Z,1.80
2023-03-24T17:24:36.804Z,1.97
2023-03-24T17:27:19.161Z,1.73
2023-03-24T17:29:47.299Z,2.20
2023-03-24T17:32:15.472Z,2.10
2023-03-24T17:34:46.159Z,2.60
2023-03-24T17:37:14.425Z,2.10
2023-03-24T17:39:42.111Z,1.67
2023-03-24T17:42:10.119Z,1.60
2023-03-24T17:44:37.774Z,2.00
2023-03-24T17:47:06.089Z,2.70
2023-03-24T17:49:34.307Z,2.10
2023-03-24T17:52:02.170Z,2.00
2023-03-24T17:54:30.570Z,2.13
2023-03-24T17:56:58.592Z,2.23
2023-03-24T17:59:26.946Z,2.13
2023-03-24T18:01:54.733Z,2.20
2023-03-24T18:04:23.984Z,1.97
2023-03-24T18:06:51.727Z,2.13
2023-03-24T18:09:19.545Z,2.87
2023-03-24T18:11:48.267Z,1.90
2023-03-24T18:14:16.539Z,3.50
2023-03-24T18:16:44.486Z,4.63
2023-03-24T18:19:12.333Z,2.00
2023-03-24T18:21:40.368Z,2.67
2023-03-24T18:24:08.964Z,2.20
2023-03-24T18:26:37.266Z,2.20
2023-03-24T18:29:06.208Z,3.27
2023-03-24T18:31:34.981Z,2.60
2023-03-24T18:34:04.205Z,2.53
2023-03-24T18:36:32.252Z,3.43
2023-03-24T18:39:07.752Z,2.27
2023-03-24T18:41:39.013Z,2.13
2023-03-24T18:44:13.761Z,1.70
2023-03-24T18:46:43.411Z,1.77
2023-03-24T18:49:14.767Z,2.00
2023-03-24T18:51:45.187Z,2.17
2023-03-24T18:54:14.819Z,1.33
2023-03-24T18:56:42.483Z,2.10
2023-03-24T18:59:11.970Z,2.90
2023-03-24T19:01:39.769Z,2.00
2023-03-24T19:04:09.450Z,2.27
2023-03-24T19:06:37.505Z,2.10
2023-03-24T19:09:05.595Z,2.07
2023-03-24T19:11:33.521Z,2.43
2023-03-24T19:14:01.847Z,2.00
2023-03-24T19:16:29.778Z,1.77
2023-03-24T19:18:58.113Z,1.90
2023-03-24T19:21:27.532Z,2.30
2023-03-24T19:23:57.083Z,1.80
2023-03-24T19:26:26.018Z,2.00
2023-03-24T19:28:53.965Z,2.10
2023-03-24T19:31:21.743Z,1.90
2023-03-24T19:33:51.824Z,1.63
2023-03-24T19:36:20.034Z,1.60
2023-03-24T19:38:48.102Z,1.80
2023-03-24T19:41:16.458Z,2.17
2023-03-24T19:43:44.281Z,2.00
2023-03-24T19:46:12.317Z,1.47
2023-03-24T19:48:40.185Z,1.80
2023-03-24T19:51:07.954Z,1.63
2023-03-24T19:53:36.117Z,1.97
2023-03-24T19:56:04.404Z,2.27
2023-03-24T19:58:32.617Z,2.10
2023-03-24T20:01:00.980Z,2.37
2023-03-24T20:03:30.091Z,1.90
2023-03-24T20:06:06.100Z,1.93
2023-03-24T20:08:34.238Z,1.90
2023-03-24T20:11:03.698Z,2.00
2023-03-24T20:13:31.555Z,1.87
2023-03-24T20:15:59.653Z,1.90
2023-03-24T20:18:27.652Z,1.97
2023-03-24T20:21:00.200Z,2.13
2023-03-24T20:23:29.052Z,2.30
2023-03-24T20:26:01.291Z,2.20
2023-03-24T20:28:29.570Z,1.77
2023-03-24T20:31:04.307Z,2.30
2023-03-24T20:33:32.848Z,2.20
2023-03-24T20:36:01.293Z,2.10
2023-03-24T20:38:29.363Z,2.33
2023-03-24T20:41:08.648Z,1.80
2023-03-24T20:43:38.155Z,1.90
2023-03-24T20:46:10.026Z,2.30
2023-03-24T20:48:38.330Z,2.40
2023-03-24T20:51:06.490Z,1.60
2023-03-24T20:53:35.049Z,1.87
2023-03-24T20:56:13.661Z,1.53
2023-03-24T20:58:44.913Z,1.90
2023-03-24T21:01:23.012Z,1.33
2023-03-24T21:03:58.269Z,1.70
2023-03-24T21:06:33.640Z,1.60
2023-03-24T21:09:01.642Z,1.30
2023-03-24T21:11:31.321Z,1.50
2023-03-24T21:14:01.221Z,1.50
2023-03-24T21:16:34.044Z,1.00
2023-03-24T21:19:02.203Z,1.43
2023-03-24T21:21:32.280Z,1.40
2023-03-24T21:24:02.728Z,1.40
2023-03-24T21:26:31.301Z,1.63
2023-03-24T21:28:59.246Z,1.50
2023-03-24T21:31:29.797Z,1.27
2023-03-24T21:33:58.180Z,1.67
2023-03-24T21:36:30.049Z,1.27
2023-03-24T21:39:01.522Z,1.70
2023-03-24T21:41:31.231Z,1.73
2023-03-24T21:44:00.922Z,1.57
2023-03-24T21:46:28.836Z,1.70
2023-03-24T21:48:59.706Z,1.90
2023-03-24T21:51:34.841Z,1.40
2023-03-24T21:54:09.992Z,1.30
2023-03-24T21:56:38.248Z,1.40
2023-03-24T21:59:06.210Z,1.67
2023-03-24T22:01:36.392Z,1.50
2023-03-24T22:04:07.273Z,1.80
2023-03-24T22:06:38.189Z,1.37
2023-03-24T22:09:10.174Z,1.50
2023-03-24T22:11:42.980Z,1.53
2023-03-24T22:14:12.701Z,1.70
2023-03-24T22:16:40.662Z,1.90
2023-03-24T22:19:09.466Z,1.70
2023-03-24T22:21:39.435Z,1.33
2023-03-24T22:24:11.637Z,1.20
2023-03-24T22:26:43.487Z,1.20
2023-03-24T22:29:16.664Z,1.50
2023-03-24T22:31:45.604Z,1.53
2023-03-24T22:34:14.088Z,1.50
2023-03-24T22:36:42.247Z,2.20
2023-03-24T22:39:10.458Z,1.63
2023-03-24T22:41:38.532Z,1.50
2023-03-24T22:44:06.731Z,1.57
2023-03-24T22:46:34.600Z,1.70
2023-03-24T22:49:03.088Z,1.73
2023-03-24T22:51:31.686Z,1.57
2023-03-24T22:54:00.356Z,1.93
2023-03-24T22:56:28.398Z,1.30
2023-03-24T22:58:56.316Z,1.60
2023-03-24T23:01:24.436Z,1.33
2023-03-24T23:03:52.384Z,2.20
2023-03-24T23:06:21.687Z,1.80
2023-03-24T23:08:50.437Z,1.30
2023-03-24T23:11:18.120Z,1.20
2023-03-24T23:13:50.620Z,2.03
2023-03-24T23:16:21.393Z,1.30
2023-03-24T23:18:49.362Z,1.70
2023-03-24T23:21:19.782Z,1.00
2023-03-24T23:23:52.349Z,1.40
2023-03-24T23:26:28.607Z,1.40
2023-03-24T23:29:03.768Z,1.27
2023-03-24T23:31:32.201Z,1.20
2023-03-24T23:34:00.321Z,1.67
2023-03-24T23:36:28.552Z,1.50
2023-03-24T23:38:56.699Z,1.80
2023-03-24T23:41:26.172Z,1.50
2023-03-24T23:43:55.323Z,1.70
2023-03-24T23:46:25.519Z,1.40
2023-03-24T23:48:55.531Z,1.83
2023-03-24T23:51:25.347Z,1.70
2023-03-24T23:53:53.679Z,1.57
2023-03-24T23:56:22.916Z,1.70
2023-03-24T23:58:50.724Z,1.87
